Time;durP1;ratioP1;P1;durP2;ratioP2;P2;SDS_P1;SDS_P2;PMS_P1;PMS_P2;Temp;Humidity;BMP_temperature;BMP_pressure;BME280_temperature;BME280_humidity;BME280_pressure;Samples;Min_cycle;Max_cycle;Signal;HPM_P1;HPM_P2
2022/06/29 00:03:10;;;;;;;2.97;1.05;;;22.10;63.60;;;;;;10286647;28;20046;-60
2022/06/29 00:08:11;;;;;;;1.77;1.17;;;22.10;63.50;;;;;;10290327;28;20023;-59
2022/06/29 00:13:11;;;;;;;1.70;1.05;;;22.10;63.50;;;;;;10289038;28;20042;-59
2022/06/29 00:18:12;;;;;;;1.42;0.90;;;22.10;63.50;;;;;;10289233;28;20026;-59
2022/06/29 00:23:13;;;;;;;1.63;1.25;;;22.20;63.50;;;;;;10287653;28;20536;-59
2022/06/29 00:28:14;;;;;;;2.72;1.35;;;22.10;63.40;;;;;;10263034;28;20102;-59
2022/06/29 00:33:14;;;;;;;1.70;1.40;;;22.10;63.30;;;;;;10266009;28;20043;-59
2022/06/29 00:38:15;;;;;;;1.85;1.02;;;22.10;63.20;;;;;;10268211;28;20047;-60
2022/06/29 00:43:16;;;;;;;2.33;0.98;;;22.10;63.30;;;;;;10276790;28;20030;-59
2022/06/29 00:48:17;;;;;;;2.28;0.93;;;22.10;63.30;;;;;;10266733;28;20086;-59
2022/06/29 00:53:20;;;;;;;2.08;1.30;;;22.10;63.20;;;;;;10247898;29;20477;-59
2022/06/29 00:58:24;;;;;;;3.10;1.35;;;22.10;63.20;;;;;;10260368;28;20063;-59
2022/06/29 01:03:26;;;;;;;2.17;0.95;;;22.10;63.20;;;;;;10276962;28;20557;-59
2022/06/29 01:08:27;;;;;;;1.20;0.88;;;22.10;63.20;;;;;;10286561;28;20046;-59
2022/06/29 01:13:28;;;;;;;1.00;0.90;;;22.10;63.20;;;;;;10287079;28;20043;-59
2022/06/29 01:18:28;;;;;;;1.15;0.95;;;22.10;63.10;;;;;;10286407;28;20841;-60
2022/06/29 01:23:29;;;;;;;1.45;1.17;;;22.10;63.00;;;;;;10286922;28;20546;-59
2022/06/29 01:28:31;;;;;;;1.60;1.10;;;22.10;63.00;;;;;;10281590;28;20054;-59
2022/06/29 01:33:31;;;;;;;1.38;0.90;;;22.10;63.10;;;;;;10285743;28;20035;-61
2022/06/29 01:38:35;;;;;;;1.45;1.05;;;22.00;63.00;;;;;;10287090;28;20039;-59
2022/06/29 01:43:39;;;;;;;2.28;1.10;;;22.00;62.90;;;;;;10264324;28;20110;-60
2022/06/29 01:48:39;;;;;;;1.58;1.30;;;22.00;62.90;;;;;;10273097;28;20030;-61
2022/06/29 01:53:40;;;;;;;1.30;0.90;;;22.00;63.00;;;;;;10269408;28;20030;-60
2022/06/29 01:58:41;;;;;;;1.30;1.00;;;22.00;62.90;;;;;;10285835;28;20041;-60
2022/06/29 02:03:42;;;;;;;1.52;1.02;;;22.00;62.90;;;;;;10271444;28;20043;-60
2022/06/29 02:08:43;;;;;;;2.40;1.38;;;22.00;62.90;;;;;;10278083;28;20033;-59
2022/06/29 02:13:44;;;;;;;1.73;1.08;;;22.00;62.80;;;;;;10270479;28;20490;-58
2022/06/29 02:18:44;;;;;;;2.63;1.05;;;22.00;62.80;;;;;;10272150;28;20109;-59
2022/06/29 02:23:45;;;;;;;2.28;1.05;;;22.00;62.80;;;;;;10285398;28;20034;-58
2022/06/29 02:28:46;;;;;;;1.23;1.00;;;22.00;62.80;;;;;;10268962;28;20402;-59
2022/06/29 02:39:06;;;;;;;1.00;0.90;;;22.00;62.90;;;;;;10284755;28;20063;-59
2022/06/29 02:44:07;;;;;;;1.10;0.90;;;22.00;62.70;;;;;;10268563;28;20708;-61
2022/06/29 02:49:08;;;;;;;1.23;0.90;;;22.00;62.70;;;;;;10262019;28;20028;-60
2022/06/29 02:54:08;;;;;;;1.23;1.00;;;22.00;62.60;;;;;;10265097;28;20034;-59
2022/06/29 02:59:09;;;;;;;1.80;0.98;;;21.90;62.60;;;;;;10284487;28;20019;-60
2022/06/29 03:04:10;;;;;;;1.20;0.80;;;22.00;62.70;;;;;;10269829;28;20074;-61
2022/06/29 03:09:11;;;;;;;1.67;1.40;;;21.90;62.60;;;;;;10285163;28;20046;-60
2022/06/29 03:14:12;;;;;;;1.45;1.13;;;21.90;62.60;;;;;;10287634;28;20096;-59
2022/06/29 03:19:13;;;;;;;2.03;0.90;;;22.00;62.60;;;;;;10271953;28;20039;-60
2022/06/29 03:24:14;;;;;;;1.63;1.00;;;21.90;62.60;;;;;;10259127;28;20033;-59
2022/06/29 03:29:14;;;;;;;1.17;0.98;;;21.90;62.60;;;;;;10263565;28;20031;-59
2022/06/29 03:34:15;;;;;;;1.52;1.00;;;21.90;62.60;;;;;;10290870;28;20042;-60
2022/06/29 03:39:16;;;;;;;1.60;1.35;;;21.90;62.60;;;;;;10261347;28;20050;-59
2022/06/29 03:44:17;;;;;;;1.35;0.88;;;21.90;62.50;;;;;;10268409;28;20081;-60
2022/06/29 03:49:17;;;;;;;1.08;0.93;;;21.90;62.50;;;;;;10254051;28;20043;-58
2022/06/29 03:54:18;;;;;;;2.15;1.30;;;21.90;62.50;;;;;;10264671;28;20045;-59
2022/06/29 03:59:19;;;;;;;1.52;1.10;;;21.90;62.50;;;;;;10267775;28;20130;-59
2022/06/29 04:04:19;;;;;;;1.83;1.08;;;21.80;62.40;;;;;;10258522;28;20041;-59
2022/06/29 04:09:20;;;;;;;1.30;1.20;;;21.80;62.40;;;;;;10289399;28;20041;-59
2022/06/29 04:14:24;;;;;;;1.27;0.95;;;21.80;62.40;;;;;;10284715;28;20047;-59
2022/06/29 04:19:26;;;;;;;1.33;0.90;;;21.80;62.30;;;;;;10288957;28;20043;-58
2022/06/29 04:24:26;;;;;;;1.02;0.80;;;21.80;62.30;;;;;;10287848;28;20031;-59
2022/06/29 04:29:27;;;;;;;1.23;1.13;;;21.80;62.30;;;;;;10289640;28;20041;-59
2022/06/29 04:34:28;;;;;;;2.90;1.00;;;21.80;62.40;;;;;;10287910;28;20034;-59
2022/06/29 04:39:28;;;;;;;1.20;1.10;;;21.80;62.40;;;;;;10289684;28;20047;-59
2022/06/29 04:44:29;;;;;;;1.67;1.30;;;21.80;62.40;;;;;;10278743;28;20036;-60
2022/06/29 04:49:30;;;;;;;2.30;1.02;;;21.80;62.60;;;;;;10281298;28;20039;-60
2022/06/29 04:54:31;;;;;;;2.45;1.30;;;21.80;62.80;;;;;;10285221;28;20045;-60
2022/06/29 04:59:31;;;;;;;4.50;1.92;;;21.80;62.90;;;;;;10275862;28;20110;-61
2022/06/29 05:04:32;;;;;;;5.05;1.40;;;21.90;63.30;;;;;;10287032;28;20781;-60
2022/06/29 05:09:33;;;;;;;7.35;1.30;;;22.00;63.40;;;;;;10286771;28;20038;-59
2022/06/29 05:14:33;;;;;;;9.00;1.85;;;22.00;63.70;;;;;;10273787;28;20599;-62
2022/06/29 05:19:34;;;;;;;6.38;1.50;;;22.00;64.00;;;;;;10246868;29;20034;-60
2022/06/29 05:24:35;;;;;;;3.63;1.40;;;22.00;64.10;;;;;;10273119;28;20465;-64
2022/06/29 05:29:35;;;;;;;3.58;1.90;;;22.00;63.70;;;;;;10271335;28;20473;-61
2022/06/29 05:34:36;;;;;;;6.40;2.13;;;22.00;63.10;;;;;;10273126;28;20117;-61
2022/06/29 05:39:37;;;;;;;3.72;2.50;;;21.90;62.30;;;;;;10285001;28;20070;-60
2022/06/29 05:44:39;;;;;;;4.45;2.20;;;21.90;62.40;;;;;;10259652;28;20031;-59
2022/06/29 05:49:40;;;;;;;6.30;2.35;;;21.90;62.60;;;;;;10260659;28;20041;-60
2022/06/29 05:54:41;;;;;;;4.55;2.88;;;21.90;62.60;;;;;;10285626;28;20066;-59
2022/06/29 05:59:41;;;;;;;3.08;1.60;;;21.90;62.60;;;;;;10285795;28;20109;-60
2022/06/29 06:04:42;;;;;;;5.47;2.30;;;21.90;62.70;;;;;;10279653;28;20114;-59
2022/06/29 06:09:43;;;;;;;8.30;3.00;;;21.90;62.60;;;;;;10275770;28;20023;-60
2022/06/29 06:14:44;;;;;;;4.18;2.28;;;22.00;63.00;;;;;;10261075;28;20043;-60
2022/06/29 06:19:45;;;;;;;12.07;3.05;;;22.00;63.00;;;;;;10245202;29;20440;-60
2022/06/29 06:24:45;;;;;;;4.75;2.40;;;22.00;62.90;;;;;;10263093;28;20039;-60
2022/06/29 06:29:46;;;;;;;5.00;2.40;;;22.00;62.90;;;;;;10284410;28;20478;-61
2022/06/29 06:34:47;;;;;;;4.10;1.95;;;22.00;62.90;;;;;;10269872;28;20027;-60
2022/06/29 06:45:07;;;;;;;3.25;2.08;;;21.90;63.00;;;;;;10288655;28;20035;-60
2022/06/29 06:50:08;;;;;;;4.70;2.45;;;21.90;62.90;;;;;;10278768;28;20035;-60
2022/06/29 06:55:10;;;;;;;5.53;2.25;;;21.90;62.80;;;;;;10281982;28;20034;-62
2022/06/29 07:00:11;;;;;;;6.00;2.75;;;21.90;62.70;;;;;;10289559;28;20562;-61
2022/06/29 07:05:12;;;;;;;6.25;2.63;;;21.90;62.40;;;;;;10290402;28;20085;-61
2022/06/29 07:10:13;;;;;;;5.40;2.58;;;22.00;63.40;;;;;;10289471;28;20030;-60
2022/06/29 07:15:13;;;;;;;4.10;2.78;;;22.00;62.80;;;;;;10289160;28;20053;-60
2022/06/29 07:20:14;;;;;;;4.43;1.95;;;22.00;62.90;;;;;;10290363;28;20031;-61
2022/06/29 07:25:15;;;;;;;2.70;1.73;;;22.00;63.00;;;;;;10282855;28;20041;-60
2022/06/29 07:30:16;;;;;;;3.63;2.33;;;22.00;63.10;;;;;;10267660;28;20089;-61
2022/06/29 07:35:16;;;;;;;3.80;2.53;;;22.00;63.00;;;;;;10290380;28;20084;-61
2022/06/29 07:40:18;;;;;;;3.25;2.05;;;22.00;63.60;;;;;;10274993;28;20027;-60
2022/06/29 07:45:18;;;;;;;4.05;2.28;;;22.10;63.10;;;;;;10280104;28;20041;-60
2022/06/29 07:50:19;;;;;;;3.55;2.08;;;22.10;63.20;;;;;;10252214;28;20380;-60
2022/06/29 07:55:20;;;;;;;5.05;2.30;;;22.10;63.20;;;;;;10289889;28;20065;-61
2022/06/29 08:00:21;;;;;;;3.08;2.10;;;22.10;63.30;;;;;;10272014;28;20038;-62
2022/06/29 08:05:23;;;;;;;2.88;2.08;;;22.10;63.30;;;;;;10289317;28;20564;-61
2022/06/29 08:10:24;;;;;;;4.93;1.95;;;22.10;63.40;;;;;;10289064;28;20030;-61
2022/06/29 08:15:25;;;;;;;3.38;2.10;;;22.10;63.40;;;;;;10289845;28;20027;-60
2022/06/29 08:20:28;;;;;;;2.95;2.00;;;22.10;63.50;;;;;;10257815;28;20058;-60
2022/06/29 08:25:29;;;;;;;5.60;2.03;;;22.10;63.50;;;;;;10281140;28;20035;-61
2022/06/29 08:30:29;;;;;;;3.70;2.10;;;22.10;63.60;;;;;;10267356;28;20082;-60
2022/06/29 08:35:30;;;;;;;3.45;2.40;;;22.20;63.60;;;;;;10273587;28;20058;-61
2022/06/29 08:40:45;;;;;;;3.30;1.83;;;22.20;63.70;;;;;;10288023;28;20029;-60
2022/06/29 08:45:48;;;;;;;4.10;1.90;;;22.20;63.70;;;;;;10288812;28;20035;-60
2022/06/29 08:50:54;;;;;;;3.85;1.98;;;22.20;63.70;;;;;;10278173;28;20042;-59
2022/06/29 08:55:55;;;;;;;2.53;1.60;;;22.20;63.80;;;;;;10286719;28;20046;-62
2022/06/29 09:00:56;;;;;;;2.88;1.92;;;22.20;63.80;;;;;;10282338;28;20035;-60
2022/06/29 09:05:57;;;;;;;2.25;1.73;;;22.20;63.70;;;;;;10279254;28;20038;-61
2022/06/29 09:10:57;;;;;;;2.53;2.03;;;22.20;63.80;;;;;;10287777;28;20027;-61
2022/06/29 09:16:00;;;;;;;3.33;2.13;;;22.20;63.90;;;;;;10270431;28;20129;-62
2022/06/29 09:21:05;;;;;;;2.85;1.90;;;22.20;63.90;;;;;;10285979;28;20027;-60
2022/06/29 09:26:06;;;;;;;3.00;2.10;;;22.20;63.90;;;;;;10286180;28;20049;-60
2022/06/29 09:31:07;;;;;;;2.42;1.90;;;22.20;64.00;;;;;;10287610;28;20379;-60
2022/06/29 09:36:14;;;;;;;2.40;1.90;;;22.20;64.20;;;;;;10286786;28;20101;-60
2022/06/29 09:41:16;;;;;;;3.08;2.10;;;22.20;64.20;;;;;;10287055;28;20074;-61
2022/06/29 09:46:16;;;;;;;2.53;2.03;;;22.20;64.20;;;;;;10285363;28;20097;-60
2022/06/29 09:51:31;;;;;;;3.47;1.98;;;22.20;64.10;;;;;;10281939;28;20038;-60
2022/06/29 09:56:34;;;;;;;3.60;2.17;;;22.20;64.00;;;;;;10270619;28;20027;-60
2022/06/29 10:06:55;;;;;;;2.10;1.73;;;22.20;64.00;;;;;;10276365;28;20634;-60
2022/06/29 10:17:58;;;;;;;2.17;1.80;;;22.20;64.30;;;;;;10280326;28;20501;-60
2022/06/29 10:22:59;;;;;;;2.72;1.90;;;22.30;64.20;;;;;;10293714;28;20059;-61
2022/06/29 10:28:23;;;;;;;2.25;1.95;;;22.30;64.00;;;;;;10292927;28;20057;-61
2022/06/29 10:33:33;;;;;;;2.15;1.70;;;22.30;64.10;;;;;;10292521;28;20045;-60
2022/06/29 10:38:54;;;;;;;2.85;1.77;;;22.30;63.80;;;;;;10286330;28;20058;-60
2022/06/29 10:43:55;;;;;;;2.50;2.00;;;22.40;63.90;;;;;;10292201;28;20038;-60
2022/06/29 10:49:22;;;;;;;3.10;1.70;;;22.40;63.70;;;;;;10283659;28;20670;-61
2022/06/29 10:54:25;;;;;;;1.77;1.48;;;22.40;63.40;;;;;;10258094;28;20089;-60
2022/06/29 10:59:38;;;;;;;1.95;1.65;;;22.50;63.40;;;;;;10291945;28;20049;-60
2022/06/29 11:04:40;;;;;;;3.00;1.95;;;22.50;63.10;;;;;;10290921;28;20078;-61
2022/06/29 11:20:24;;;;;;;2.83;1.83;;;22.50;63.40;;;;;;10291728;28;20078;-60
2022/06/29 11:25:26;;;;;;;2.38;1.70;;;22.50;63.40;;;;;;10290528;28;20106;-59
2022/06/29 11:30:27;;;;;;;2.72;2.00;;;22.60;63.50;;;;;;10274177;28;20027;-61
2022/06/29 11:35:28;;;;;;;3.42;1.70;;;22.60;63.40;;;;;;10278337;28;20058;-61
2022/06/29 11:40:41;;;;;;;1.88;1.48;;;22.60;63.30;;;;;;10276492;28;20034;-60
2022/06/29 11:45:53;;;;;;;1.85;1.52;;;22.60;63.00;;;;;;10273352;28;20089;-61
2022/06/29 11:51:02;;;;;;;2.30;1.70;;;22.60;63.10;;;;;;10276044;28;20035;-62
2022/06/29 11:56:17;;;;;;;2.55;1.85;;;22.70;63.00;;;;;;10258088;28;20074;-61
2022/06/29 12:01:26;;;;;;;1.77;1.50;;;22.70;62.70;;;;;;10289564;28;20158;-59
2022/06/29 12:06:35;;;;;;;4.25;1.90;;;22.70;62.80;;;;;;10289823;28;20030;-60
2022/06/29 12:11:35;;;;;;;3.45;1.75;;;22.70;62.50;;;;;;10277615;28;20039;-63
2022/06/29 12:16:36;;;;;;;2.50;1.85;;;22.70;62.60;;;;;;10289073;28;20449;-62
2022/06/29 12:21:37;;;;;;;2.65;1.77;;;22.70;62.80;;;;;;10276478;28;20368;-63
2022/06/29 12:26:38;;;;;;;3.00;2.03;;;22.70;62.50;;;;;;10279484;28;20452;-63
2022/06/29 12:31:40;;;;;;;2.03;1.70;;;22.80;62.10;;;;;;10277551;28;20027;-63
2022/06/29 12:36:42;;;;;;;3.65;1.75;;;22.80;61.70;;;;;;10286175;28;20041;-62
2022/06/29 12:41:43;;;;;;;2.20;1.75;;;22.80;61.40;;;;;;10269577;28;20030;-62
2022/06/29 12:46:43;;;;;;;3.60;1.85;;;22.80;61.50;;;;;;10280684;28;20375;-62
2022/06/29 12:51:45;;;;;;;2.45;1.85;;;22.80;62.00;;;;;;10256427;28;20035;-62
2022/06/29 12:56:46;;;;;;;2.88;1.70;;;22.80;61.70;;;;;;10247921;28;20581;-62
2022/06/29 13:01:47;;;;;;;2.72;1.75;;;22.80;61.60;;;;;;10261472;28;20080;-61
2022/06/29 13:06:47;;;;;;;5.03;1.85;;;22.90;61.30;;;;;;10274005;28;20039;-61
2022/06/29 13:11:49;;;;;;;2.58;2.30;;;22.90;60.90;;;;;;10284227;28;20042;-62
2022/06/29 13:16:49;;;;;;;5.55;2.45;;;23.00;60.80;;;;;;10273698;28;20066;-60
2022/06/29 13:21:50;;;;;;;6.50;2.40;;;23.00;60.50;;;;;;10270242;28;20114;-62
2022/06/29 13:26:51;;;;;;;4.05;2.10;;;23.00;60.10;;;;;;10260499;28;20038;-61
2022/06/29 13:31:53;;;;;;;4.47;2.10;;;23.00;60.10;;;;;;10283747;28;20401;-62
2022/06/29 13:36:56;;;;;;;4.43;2.25;;;23.00;60.70;;;;;;10258702;28;20486;-62
2022/06/29 13:42:00;;;;;;;5.82;2.92;;;23.00;60.60;;;;;;10284775;28;20031;-61
2022/06/29 13:47:01;;;;;;;12.73;6.05;;;23.00;60.30;;;;;;10285078;28;20050;-62
2022/06/29 13:52:02;;;;;;;8.57;3.95;;;23.10;63.60;;;;;;10276045;28;20051;-63
2022/06/29 13:57:03;;;;;;;10.90;4.50;;;23.10;61.10;;;;;;10283787;28;20034;-62
2022/06/29 14:02:04;;;;;;;14.63;4.53;;;23.10;61.60;;;;;;10270809;28;20659;-61
2022/06/29 14:07:05;;;;;;;9.00;3.80;;;23.10;60.90;;;;;;10249807;28;20038;-61
2022/06/29 14:12:06;;;;;;;7.40;3.22;;;23.10;60.30;;;;;;10270439;28;20125;-61
2022/06/29 14:17:07;;;;;;;6.25;2.70;;;23.10;60.30;;;;;;10284358;28;20093;-62
2022/06/29 14:22:07;;;;;;;7.13;2.90;;;23.10;60.10;;;;;;10285203;28;20031;-63
2022/06/29 14:27:08;;;;;;;5.40;2.85;;;23.00;60.10;;;;;;10256181;28;20033;-63
2022/06/29 14:32:09;;;;;;;6.72;3.85;;;23.00;60.50;;;;;;10270015;28;20096;-62
2022/06/29 14:37:10;;;;;;;6.95;3.40;;;23.00;60.70;;;;;;10284174;28;20054;-64
2022/06/29 14:42:11;;;;;;;7.25;3.20;;;23.00;60.70;;;;;;10281343;28;20026;-62
2022/06/29 14:47:11;;;;;;;5.32;2.58;;;23.00;60.50;;;;;;10282169;28;20038;-63
2022/06/29 14:52:12;;;;;;;3.72;2.40;;;22.90;60.70;;;;;;10257340;28;20395;-63
2022/06/29 14:57:13;;;;;;;3.35;2.17;;;22.90;61.00;;;;;;10283362;28;20027;-62
2022/06/29 15:02:14;;;;;;;4.88;2.65;;;22.90;60.90;;;;;;10268864;28;20023;-63
2022/06/29 15:07:15;;;;;;;4.32;2.67;;;22.90;61.20;;;;;;10266690;28;20037;-62
2022/06/29 15:12:15;;;;;;;4.50;2.58;;;22.90;61.60;;;;;;10281830;28;20062;-62
2022/06/29 15:17:16;;;;;;;5.95;2.35;;;23.10;61.70;;;;;;10275128;28;20037;-61
2022/06/29 15:22:17;;;;;;;6.30;2.55;;;23.20;61.90;;;;;;10285786;28;20034;-63
2022/06/29 15:27:17;;;;;;;5.40;3.30;;;23.30;61.90;;;;;;10262448;28;20027;-62
2022/06/29 15:32:18;;;;;;;4.78;2.83;;;23.40;62.00;;;;;;10272621;28;20125;-63
2022/06/29 15:42:40;;;;;;;4.82;4.05;;;23.50;62.70;;;;;;10261420;28;20054;-63
2022/06/29 15:47:41;;;;;;;6.32;4.20;;;23.50;63.10;;;;;;10286792;28;20041;-63
2022/06/29 15:52:41;;;;;;;8.70;3.65;;;23.60;63.50;;;;;;10271148;28;20035;-63
2022/06/29 15:57:42;;;;;;;7.45;3.42;;;23.80;62.50;;;;;;10265929;28;20039;-63
2022/06/29 16:02:43;;;;;;;6.07;3.30;;;23.60;61.50;;;;;;10285322;28;20039;-64
2022/06/29 16:07:43;;;;;;;4.63;3.30;;;23.60;59.50;;;;;;10289803;28;20394;-63
2022/06/29 16:12:44;;;;;;;3.92;2.97;;;23.50;59.00;;;;;;10289173;28;20490;-63
2022/06/29 16:17:45;;;;;;;5.05;3.10;;;23.50;60.10;;;;;;10270541;28;20093;-63
2022/06/29 16:22:46;;;;;;;4.80;2.97;;;23.50;59.30;;;;;;10290053;28;20085;-63
2022/06/29 16:27:47;;;;;;;4.05;2.95;;;23.50;59.00;;;;;;10272909;28;20033;-63
2022/06/29 16:32:47;;;;;;;4.40;3.08;;;23.50;59.00;;;;;;10261891;28;20063;-62
2022/06/29 16:37:48;;;;;;;4.20;3.25;;;23.50;58.60;;;;;;10271357;28;20047;-61
2022/06/29 16:42:49;;;;;;;4.03;2.83;;;23.50;59.50;;;;;;10273201;28;20031;-63
2022/06/29 16:47:50;;;;;;;4.18;3.15;;;23.60;58.20;;;;;;10279645;28;20483;-62
2022/06/29 16:52:51;;;;;;;5.28;3.22;;;23.50;57.40;;;;;;10277702;28;20054;-62
2022/06/29 16:57:52;;;;;;;6.13;3.10;;;23.50;60.60;;;;;;10287478;28;20118;-64
2022/06/29 17:02:53;;;;;;;9.32;3.10;;;23.40;58.60;;;;;;10277681;28;20042;-65
2022/06/29 17:07:54;;;;;;;5.85;4.15;;;23.50;57.90;;;;;;10279893;28;20031;-62
2022/06/29 17:12:55;;;;;;;8.20;3.53;;;23.50;57.20;;;;;;10258342;28;20064;-63
2022/06/29 17:17:55;;;;;;;4.20;2.60;;;23.50;57.60;;;;;;10273213;28;20055;-63
2022/06/29 17:22:56;;;;;;;10.13;3.22;;;23.50;57.00;;;;;;10258396;28;20039;-62
2022/06/29 17:27:57;;;;;;;8.52;4.00;;;23.50;57.40;;;;;;10278201;28;20034;-61
2022/06/29 17:32:58;;;;;;;8.20;3.10;;;23.50;58.10;;;;;;10285924;28;20088;-61
2022/06/29 17:37:59;;;;;;;6.35;3.70;;;23.50;57.70;;;;;;10270141;28;20050;-61
2022/06/29 17:42:59;;;;;;;7.07;3.00;;;23.40;58.30;;;;;;10281352;28;20023;-62
2022/06/29 17:48:00;;;;;;;4.15;3.08;;;23.40;59.10;;;;;;10247784;28;20062;-62
2022/06/29 17:53:01;;;;;;;7.22;3.45;;;23.40;59.50;;;;;;10269626;28;20030;-61
2022/06/29 17:58:01;;;;;;;6.65;3.70;;;23.30;59.70;;;;;;10286446;28;20110;-61
2022/06/29 18:03:03;;;;;;;7.85;2.55;;;23.30;60.00;;;;;;10285025;28;20022;-60
2022/06/29 18:08:04;;;;;;;8.18;3.47;;;23.30;60.30;;;;;;10278855;28;20070;-62
2022/06/29 18:13:05;;;;;;;4.15;2.97;;;23.40;60.60;;;;;;10268093;28;20089;-62
2022/06/29 18:18:06;;;;;;;4.93;2.50;;;23.30;61.00;;;;;;10265222;28;20022;-65
2022/06/29 18:23:07;;;;;;;3.67;2.50;;;23.30;60.70;;;;;;10268424;28;20471;-63
2022/06/29 18:28:07;;;;;;;5.28;2.92;;;23.30;60.70;;;;;;10275549;28;20031;-63
2022/06/29 18:33:09;;;;;;;4.65;2.40;;;23.30;60.80;;;;;;10275936;28;20041;-63
2022/06/29 18:38:12;;;;;;;3.42;2.58;;;23.30;60.90;;;;;;10269856;28;20113;-63
2022/06/29 18:43:12;;;;;;;4.15;2.28;;;23.30;61.00;;;;;;10279589;28;20485;-63
2022/06/29 18:48:13;;;;;;;3.67;2.85;;;23.30;61.10;;;;;;10280132;28;20034;-63
2022/06/29 18:53:14;;;;;;;3.42;2.75;;;23.30;61.20;;;;;;10276560;28;20050;-63
2022/06/29 18:58:14;;;;;;;5.28;2.85;;;23.30;61.30;;;;;;10290422;28;20049;-63
2022/06/29 19:03:15;;;;;;;4.50;2.70;;;23.30;61.50;;;;;;10273560;28;20050;-63
2022/06/29 19:08:18;;;;;;;2.95;2.47;;;23.30;61.40;;;;;;10284310;28;20485;-61
2022/06/29 19:13:18;;;;;;;3.17;2.47;;;23.30;61.70;;;;;;10271140;28;20370;-61
2022/06/29 19:18:19;;;;;;;3.30;2.55;;;23.30;61.60;;;;;;10288805;28;20035;-59
2022/06/29 19:23:20;;;;;;;6.22;2.85;;;23.30;62.00;;;;;;10279896;28;20033;-62
2022/06/29 19:28:20;;;;;;;4.90;2.63;;;23.30;62.20;;;;;;10294756;28;20110;-61
2022/06/29 19:33:21;;;;;;;7.95;3.35;;;23.30;62.30;;;;;;10283115;28;20111;-62
2022/06/29 19:38:22;;;;;;;5.25;3.15;;;23.30;62.40;;;;;;10265550;28;20134;-61
2022/06/29 19:43:23;;;;;;;4.05;2.95;;;23.30;62.50;;;;;;10283614;28;20398;-62
2022/06/29 19:48:24;;;;;;;5.40;3.45;;;23.30;62.50;;;;;;10279728;28;20065;-61
2022/06/29 19:53:24;;;;;;;4.03;2.55;;;23.30;62.60;;;;;;10285591;28;20042;-62
2022/06/29 19:58:25;;;;;;;4.88;2.95;;;23.30;62.60;;;;;;10287012;28;20077;-62
2022/06/29 20:03:26;;;;;;;2.90;1.88;;;23.30;62.60;;;;;;10284710;28;20458;-62
2022/06/29 20:08:27;;;;;;;3.75;2.38;;;23.30;62.60;;;;;;10284849;28;20445;-62
2022/06/29 20:13:27;;;;;;;3.42;2.50;;;23.30;62.60;;;;;;10272081;28;20041;-62
2022/06/29 20:18:29;;;;;;;3.67;2.92;;;23.30;62.60;;;;;;10288388;28;20053;-61
2022/06/29 20:23:29;;;;;;;3.63;2.70;;;23.30;62.50;;;;;;10287351;28;20026;-61
2022/06/29 20:28:31;;;;;;;3.20;2.65;;;23.30;62.60;;;;;;10288476;28;20031;-62
2022/06/29 20:33:32;;;;;;;3.33;2.63;;;23.30;62.50;;;;;;10286999;28;20030;-61
2022/06/29 20:38:33;;;;;;;3.22;2.80;;;23.30;62.40;;;;;;10279016;28;20067;-61
2022/06/29 20:48:53;;;;;;;3.55;2.83;;;23.30;62.50;;;;;;10280704;28;20051;-61
2022/06/29 20:53:54;;;;;;;6.60;2.90;;;23.30;62.60;;;;;;10267849;28;20038;-60
2022/06/29 20:58:55;;;;;;;3.63;2.70;;;23.30;62.80;;;;;;10283597;28;20158;-61
2022/06/29 21:03:55;;;;;;;4.80;2.45;;;23.30;62.80;;;;;;10282751;28;20557;-62
2022/06/29 21:08:56;;;;;;;3.85;3.08;;;23.30;62.80;;;;;;10284485;28;20035;-62
2022/06/29 21:13:58;;;;;;;4.28;2.40;;;23.30;62.90;;;;;;10283177;28;20038;-62
2022/06/29 21:18:59;;;;;;;4.13;2.70;;;23.30;63.00;;;;;;10283058;28;20274;-61
2022/06/29 21:23:59;;;;;;;3.30;3.00;;;23.30;63.00;;;;;;10282910;28;20401;-61
2022/06/29 21:29:01;;;;;;;2.50;2.30;;;23.30;63.00;;;;;;10266704;28;20030;-61
2022/06/29 21:34:01;;;;;;;2.85;2.55;;;23.30;62.90;;;;;;10282931;28;20046;-62
2022/06/29 21:39:03;;;;;;;2.53;2.22;;;23.30;62.90;;;;;;10282320;28;20062;-61
2022/06/29 21:44:04;;;;;;;4.40;2.67;;;23.30;63.00;;;;;;10282838;28;20115;-61
2022/06/29 21:54:24;;;;;;;3.47;3.17;;;23.30;63.10;;;;;;10273284;28;20042;-61
2022/06/29 21:59:25;;;;;;;3.20;2.88;;;23.30;63.20;;;;;;10281370;28;20031;-61
2022/06/29 22:04:25;;;;;;;4.13;2.72;;;23.30;63.10;;;;;;10245805;28;20035;-61
2022/06/29 22:09:26;;;;;;;3.33;3.03;;;23.30;63.10;;;;;;10283016;28;20038;-61
2022/06/29 22:14:27;;;;;;;3.78;2.88;;;23.30;63.10;;;;;;10280354;28;20045;-61
2022/06/29 22:19:28;;;;;;;4.47;3.35;;;23.30;63.20;;;;;;10281414;28;20503;-62
2022/06/29 22:24:28;;;;;;;3.72;3.28;;;23.30;63.20;;;;;;10281693;28;20033;-61
2022/06/29 22:29:29;;;;;;;3.88;3.53;;;23.30;63.20;;;;;;10265259;28;20125;-61
2022/06/29 22:34:30;;;;;;;3.80;3.22;;;23.30;63.20;;;;;;10281316;28;20045;-61
2022/06/29 22:39:30;;;;;;;3.65;3.25;;;23.30;63.20;;;;;;10266470;28;20461;-60
2022/06/29 22:44:31;;;;;;;4.00;3.40;;;23.30;63.20;;;;;;10264540;28;20660;-61
2022/06/29 22:49:32;;;;;;;4.05;3.45;;;23.30;63.90;;;;;;10251499;28;20151;-61
2022/06/29 22:54:33;;;;;;;3.67;3.38;;;23.20;63.20;;;;;;10277810;28;20043;-61
2022/06/29 22:59:34;;;;;;;5.20;3.55;;;23.30;63.30;;;;;;10280584;28;20081;-61
2022/06/29 23:04:35;;;;;;;3.40;3.10;;;23.20;63.20;;;;;;10280633;28;20045;-61
2022/06/29 23:09:36;;;;;;;4.43;3.50;;;23.20;63.30;;;;;;10280444;28;20105;-61
2022/06/29 23:14:37;;;;;;;3.97;3.55;;;23.30;63.30;;;;;;10280366;28;20089;-61
2022/06/29 23:19:37;;;;;;;4.50;3.45;;;23.20;63.30;;;;;;10280741;28;20042;-61
2022/06/29 23:24:39;;;;;;;3.83;3.17;;;23.20;63.20;;;;;;10281795;28;20054;-61
2022/06/29 23:29:39;;;;;;;5.05;3.72;;;23.20;63.20;;;;;;10269983;28;20039;-61
2022/06/29 23:34:40;;;;;;;4.82;3.72;;;23.20;63.30;;;;;;10270570;28;20089;-62
2022/06/29 23:39:41;;;;;;;4.05;3.75;;;23.20;63.30;;;;;;10271008;28;20111;-61
2022/06/29 23:44:42;;;;;;;4.28;3.88;;;23.20;63.30;;;;;;10288470;28;20496;-61
2022/06/29 23:49:43;;;;;;;3.75;3.45;;;23.20;63.30;;;;;;10272084;28;20384;-61
2022/06/29 23:54:44;;;;;;;4.40;4.00;;;23.20;63.30;;;;;;10253306;28;20101;-61
2022/06/29 23:59:45;;;;;;;4.88;4.00;;;23.20;63.30;;;;;;10286787;28;20150;-61
